Time;durP1;ratioP1;P1;durP2;ratioP2;P2;SDS_P1;SDS_P2;PMS_P1;PMS_P2;Temp;Humidity;BMP_temperature;BMP_pressure;BME280_temperature;BME280_humidity;BME280_pressure;Samples;Min_cycle;Max_cycle;Signal;HPM_P1;HPM_P2
2022/02/22 00:00:09;;;;;;;6.17;2.07;;;7.80;95.20;;;;;;4958784;29;20458;-87
2022/02/22 00:02:36;;;;;;;8.50;1.90;;;7.80;95.30;;;;;;4942000;29;20500;-87
2022/02/22 00:05:03;;;;;;;4.97;1.47;;;7.80;95.40;;;;;;4936180;29;21233;-87
2022/02/22 00:07:30;;;;;;;6.53;1.73;;;7.80;95.60;;;;;;4952878;28;20426;-89
2022/02/22 00:09:57;;;;;;;5.07;1.47;;;7.80;95.30;;;;;;4946438;28;20464;-88
2022/02/22 00:12:24;;;;;;;3.70;1.63;;;7.80;95.20;;;;;;4935950;29;20544;-86
2022/02/22 00:14:50;;;;;;;2.77;1.47;;;7.80;95.10;;;;;;4950852;28;20477;-87
2022/02/22 00:17:18;;;;;;;7.20;2.10;;;7.80;95.10;;;;;;4936356;29;20940;-87
2022/02/22 00:19:45;;;;;;;7.90;1.90;;;7.80;95.10;;;;;;4943428;29;20449;-86
2022/02/22 00:22:12;;;;;;;4.30;1.63;;;7.80;95.10;;;;;;4945118;29;20518;-88
2022/02/22 00:24:39;;;;;;;3.70;1.50;;;7.80;95.00;;;;;;4943736;28;20477;-87
2022/02/22 00:27:06;;;;;;;6.33;1.50;;;7.80;94.80;;;;;;4936976;29;20969;-88
2022/02/22 00:29:33;;;;;;;6.67;1.70;;;7.80;94.90;;;;;;4937997;29;20450;-87
2022/02/22 00:31:59;;;;;;;2.47;1.33;;;7.80;94.60;;;;;;4934999;29;20456;-86
2022/02/22 00:34:27;;;;;;;8.90;1.43;;;7.80;94.60;;;;;;4936793;28;20455;-87
2022/02/22 00:36:54;;;;;;;2.53;1.37;;;7.80;94.90;;;;;;4937523;29;20457;-86
2022/02/22 00:39:22;;;;;;;5.50;2.50;;;7.80;95.10;;;;;;4940846;29;20457;-87
2022/02/22 00:41:48;;;;;;;3.40;1.60;;;7.80;95.30;;;;;;4939933;29;20454;-87
2022/02/22 00:44:15;;;;;;;8.00;2.00;;;7.70;95.10;;;;;;4936063;29;20461;-87
2022/02/22 00:46:42;;;;;;;8.20;1.83;;;7.70;95.00;;;;;;4933395;29;20465;-87
2022/02/22 00:49:09;;;;;;;6.73;3.20;;;7.60;95.30;;;;;;4934536;29;20451;-86
2022/02/22 00:51:38;;;;;;;12.03;3.43;;;7.60;95.00;;;;;;4930408;29;20461;-87
2022/02/22 00:54:04;;;;;;;10.30;2.30;;;7.60;94.60;;;;;;4926484;29;20461;-87
2022/02/22 00:56:31;;;;;;;7.53;3.00;;;7.60;94.70;;;;;;4934110;29;20470;-88
2022/02/22 00:58:58;;;;;;;6.53;2.50;;;7.50;94.30;;;;;;4943893;29;20465;-87
2022/02/22 01:01:25;;;;;;;5.70;2.50;;;7.50;94.20;;;;;;4933587;29;20446;-87
2022/02/22 01:03:51;;;;;;;4.50;1.80;;;7.50;94.30;;;;;;4941953;29;20450;-87
2022/02/22 01:06:18;;;;;;;8.23;2.00;;;7.50;94.20;;;;;;4932362;28;21001;-87
2022/02/22 01:08:46;;;;;;;4.87;1.70;;;7.50;94.00;;;;;;4933649;29;20460;-88
2022/02/22 01:11:13;;;;;;;6.33;2.13;;;7.50;93.90;;;;;;4931370;29;20455;-87
2022/02/22 01:13:40;;;;;;;3.60;1.70;;;7.50;94.10;;;;;;4936349;29;20454;-86
2022/02/22 01:16:07;;;;;;;5.00;2.13;;;7.50;94.30;;;;;;4957472;28;20474;-89
2022/02/22 01:18:33;;;;;;;6.40;1.90;;;7.50;94.30;;;;;;4931199;29;20466;-86
2022/02/22 01:21:00;;;;;;;11.60;3.60;;;7.50;94.30;;;;;;4944506;29;20462;-87
2022/02/22 01:23:27;;;;;;;4.70;1.97;;;7.60;94.40;;;;;;4937206;29;20460;-87
2022/02/22 01:25:56;;;;;;;5.00;1.53;;;7.60;94.50;;;;;;4937910;29;20489;-87
2022/02/22 01:28:23;;;;;;;5.60;1.77;;;7.60;94.50;;;;;;4933457;29;20899;-88
2022/02/22 01:30:49;;;;;;;6.20;1.53;;;7.50;94.50;;;;;;4939767;29;20449;-87
2022/02/22 01:33:16;;;;;;;3.53;1.10;;;7.50;94.70;;;;;;4934469;29;20457;-87
2022/02/22 01:35:43;;;;;;;5.47;1.87;;;7.50;95.10;;;;;;4936969;29;20472;-88
2022/02/22 01:38:10;;;;;;;5.23;1.80;;;7.40;95.30;;;;;;4939498;29;20449;-87
2022/02/22 01:40:36;;;;;;;3.57;1.23;;;7.40;95.70;;;;;;4938491;29;20458;-87
2022/02/22 01:43:04;;;;;;;5.20;1.73;;;7.40;95.90;;;;;;4937222;29;20454;-87
2022/02/22 01:45:31;;;;;;;6.73;1.70;;;7.40;96.20;;;;;;4947570;28;20480;-89
2022/02/22 01:48:04;;;;;;;6.90;1.77;;;7.40;96.60;;;;;;4941788;28;20979;-88
2022/02/22 01:50:31;;;;;;;4.13;2.13;;;7.40;97.00;;;;;;4945646;29;21005;-88
2022/02/22 01:52:59;;;;;;;8.90;2.00;;;7.30;97.30;;;;;;4929845;29;20465;-88
2022/02/22 01:55:26;;;;;;;3.87;1.67;;;7.20;97.60;;;;;;4937540;29;21001;-88
2022/02/22 01:57:53;;;;;;;3.03;1.73;;;7.20;98.20;;;;;;4937477;29;20453;-87
2022/02/22 02:00:21;;;;;;;6.20;1.67;;;7.10;98.20;;;;;;4948731;29;20831;-87
2022/02/22 02:02:51;;;;;;;5.47;2.43;;;7.00;98.40;;;;;;4935983;29;20453;-87
2022/02/22 02:05:18;;;;;;;4.77;1.67;;;6.90;98.90;;;;;;4940832;29;20506;-88
2022/02/22 02:07:44;;;;;;;6.83;2.30;;;6.70;99.10;;;;;;4940384;29;20450;-88
2022/02/22 02:10:11;;;;;;;5.43;2.33;;;6.70;99.50;;;;;;4935904;29;20445;-88
2022/02/22 02:12:39;;;;;;;4.73;2.07;;;6.60;99.60;;;;;;4940294;29;20962;-89
2022/02/22 02:15:07;;;;;;;3.83;1.87;;;6.60;99.80;;;;;;4940232;29;20477;-88
2022/02/22 02:17:36;;;;;;;5.43;2.03;;;6.60;99.80;;;;;;4929248;29;20442;-87
2022/02/22 02:20:04;;;;;;;5.77;1.90;;;6.50;99.60;;;;;;4936485;29;20461;-88
2022/02/22 02:22:32;;;;;;;2.73;1.90;;;6.50;99.40;;;;;;4931777;29;20465;-89
2022/02/22 02:24:59;;;;;;;6.10;3.87;;;6.50;99.40;;;;;;4936040;29;20480;-88
2022/02/22 02:27:26;;;;;;;3.93;1.80;;;6.50;99.20;;;;;;4943714;28;20561;-87
2022/02/22 02:29:55;;;;;;;3.70;1.97;;;6.40;99.00;;;;;;4941647;29;20468;-87
2022/02/22 02:32:24;;;;;;;3.77;1.83;;;6.50;98.70;;;;;;4940744;29;20464;-89
2022/02/22 02:34:51;;;;;;;4.90;2.00;;;6.40;98.70;;;;;;4935396;29;20458;-88
2022/02/22 02:37:18;;;;;;;3.23;1.63;;;6.50;98.50;;;;;;4943725;29;20517;-88
2022/02/22 02:39:46;;;;;;;8.57;2.13;;;6.50;98.30;;;;;;4951995;29;20464;-87
2022/02/22 02:42:16;;;;;;;3.60;1.23;;;6.40;98.30;;;;;;4947092;29;20446;-87
2022/02/22 02:44:44;;;;;;;5.40;2.23;;;6.40;98.50;;;;;;4938947;29;20476;-86
2022/02/22 02:47:11;;;;;;;3.57;1.90;;;6.40;98.50;;;;;;4934742;29;20925;-87
2022/02/22 02:49:38;;;;;;;6.30;1.83;;;6.40;98.70;;;;;;4930403;29;20477;-87
2022/02/22 02:52:06;;;;;;;4.90;2.17;;;6.30;98.80;;;;;;4934531;29;20548;-86
2022/02/22 02:54:33;;;;;;;5.10;1.90;;;6.40;98.80;;;;;;4942214;29;20466;-87
2022/02/22 02:57:01;;;;;;;4.50;2.20;;;6.40;98.70;;;;;;4949230;29;20449;-88
2022/02/22 02:59:28;;;;;;;4.07;1.83;;;6.30;98.70;;;;;;4941539;29;20478;-87
2022/02/22 03:01:55;;;;;;;9.40;2.40;;;6.40;98.70;;;;;;4942498;29;20472;-87
2022/02/22 03:04:22;;;;;;;7.33;2.43;;;6.40;98.60;;;;;;4934928;29;20446;-86
2022/02/22 03:06:49;;;;;;;5.40;2.10;;;6.30;98.50;;;;;;4939105;29;20484;-87
2022/02/22 03:09:16;;;;;;;6.80;1.90;;;6.30;98.40;;;;;;4943987;29;20457;-88
2022/02/22 03:11:42;;;;;;;5.93;1.60;;;6.20;98.50;;;;;;4944342;29;20456;-87
2022/02/22 03:14:11;;;;;;;6.30;2.23;;;6.20;98.70;;;;;;4932623;29;20450;-87
2022/02/22 03:16:38;;;;;;;9.80;2.10;;;6.10;98.70;;;;;;4933092;29;20443;-87
2022/02/22 03:19:04;;;;;;;3.97;2.10;;;6.10;98.80;;;;;;4937426;29;20458;-88
2022/02/22 03:21:32;;;;;;;5.80;2.20;;;6.10;98.50;;;;;;4952479;28;20734;-88
2022/02/22 03:23:59;;;;;;;6.93;1.87;;;6.20;98.30;;;;;;4945472;28;20459;-86
2022/02/22 03:26:26;;;;;;;7.13;2.07;;;6.30;98.20;;;;;;4932498;29;20482;-87
2022/02/22 03:28:54;;;;;;;3.23;1.93;;;6.30;97.90;;;;;;4927474;29;20463;-87
2022/02/22 03:31:22;;;;;;;8.73;2.73;;;6.30;97.80;;;;;;4937675;29;20458;-88
2022/02/22 03:33:52;;;;;;;3.23;2.00;;;6.40;98.10;;;;;;4942552;29;20522;-87
2022/02/22 03:36:19;;;;;;;3.23;1.70;;;6.40;98.00;;;;;;4941481;29;20465;-87
2022/02/22 03:38:46;;;;;;;7.60;2.60;;;6.30;98.10;;;;;;4938048;29;20456;-87
2022/02/22 03:41:13;;;;;;;10.53;2.43;;;6.30;98.20;;;;;;4935925;29;20450;-88
2022/02/22 03:43:40;;;;;;;6.87;2.33;;;6.20;98.20;;;;;;4933226;29;20478;-88
2022/02/22 03:46:06;;;;;;;6.63;1.90;;;6.30;98.40;;;;;;4952435;28;20488;-88
2022/02/22 03:48:35;;;;;;;8.30;2.57;;;6.20;98.40;;;;;;4945218;28;20852;-87
2022/02/22 03:51:01;;;;;;;8.07;2.40;;;6.20;98.30;;;;;;4933136;29;20450;-87
2022/02/22 03:53:28;;;;;;;2.27;1.93;;;6.20;98.40;;;;;;4936638;29;20443;-87
2022/02/22 03:55:55;;;;;;;6.73;1.60;;;6.30;98.50;;;;;;4941134;29;20819;-87
2022/02/22 03:58:22;;;;;;;10.10;2.97;;;6.20;98.50;;;;;;4937556;29;20562;-88
2022/02/22 04:00:49;;;;;;;3.83;1.90;;;6.20;98.70;;;;;;4934318;29;20496;-87
2022/02/22 04:03:18;;;;;;;5.43;2.17;;;6.20;98.60;;;;;;4944571;29;20532;-87
2022/02/22 04:05:47;;;;;;;4.37;2.03;;;6.30;98.60;;;;;;4943090;29;20832;-88
2022/02/22 04:08:14;;;;;;;6.80;2.30;;;6.20;98.60;;;;;;4940695;29;20458;-87
2022/02/22 04:10:41;;;;;;;3.30;1.80;;;6.10;98.90;;;;;;4934196;29;20839;-87
2022/02/22 04:13:08;;;;;;;5.60;2.47;;;6.20;99.20;;;;;;4935065;29;20453;-87
2022/02/22 04:15:35;;;;;;;6.03;2.17;;;6.20;99.40;;;;;;4942426;29;20469;-87
2022/02/22 04:18:01;;;;;;;4.80;2.10;;;6.20;99.40;;;;;;4935186;29;20458;-86
2022/02/22 04:20:28;;;;;;;6.67;1.90;;;6.30;99.50;;;;;;4938884;29;20456;-87
2022/02/22 04:22:57;;;;;;;7.13;2.30;;;6.30;99.20;;;;;;4960607;28;20452;-88
2022/02/22 04:25:23;;;;;;;7.80;2.07;;;6.30;99.30;;;;;;4954266;28;20476;-87
2022/02/22 04:27:50;;;;;;;3.70;2.00;;;6.20;99.90;;;;;;4937903;29;20446;-88
2022/02/22 04:30:17;;;;;;;5.30;1.90;;;6.10;99.90;;;;;;4940402;29;20451;-87
2022/02/22 04:32:44;;;;;;;6.57;2.90;;;6.00;99.90;;;;;;4938453;29;20463;-88
2022/02/22 04:35:11;;;;;;;4.13;1.77;;;5.90;99.90;;;;;;4942203;28;20470;-87
2022/02/22 04:37:38;;;;;;;9.17;2.50;;;5.90;99.90;;;;;;4941696;29;20452;-88
2022/02/22 04:40:08;;;;;;;3.40;2.23;;;5.80;99.90;;;;;;4958358;28;20438;-88
2022/02/22 04:42:34;;;;;;;5.10;2.30;;;5.70;99.90;;;;;;4939365;29;20449;-87
2022/02/22 04:45:01;;;;;;;4.43;2.97;;;5.70;99.90;;;;;;4927218;29;20508;-88
2022/02/22 04:47:28;;;;;;;4.27;2.40;;;5.70;99.90;;;;;;4944040;29;21050;-87
2022/02/22 04:49:55;;;;;;;6.23;2.70;;;5.50;99.90;;;;;;4929961;29;20458;-87
2022/02/22 04:52:22;;;;;;;8.40;3.00;;;5.60;99.90;;;;;;4936957;29;20483;-87
2022/02/22 04:54:48;;;;;;;8.33;2.80;;;5.60;99.90;;;;;;4935393;29;20469;-86
2022/02/22 04:57:17;;;;;;;4.93;2.43;;;5.50;99.90;;;;;;4939075;28;20568;-87
2022/02/22 04:59:43;;;;;;;8.30;4.90;;;5.40;99.90;;;;;;4957352;28;20444;-87
2022/02/22 05:02:10;;;;;;;8.87;2.60;;;5.50;99.90;;;;;;4930517;29;20956;-87
2022/02/22 05:04:37;;;;;;;7.47;2.70;;;5.40;99.90;;;;;;4934673;29;20491;-87
2022/02/22 05:07:04;;;;;;;7.30;3.30;;;5.30;99.90;;;;;;4927810;29;20481;-87
2022/02/22 05:09:31;;;;;;;7.63;2.67;;;5.40;99.90;;;;;;4938716;29;20964;-87
2022/02/22 05:11:58;;;;;;;5.33;2.47;;;5.40;99.90;;;;;;4931832;29;20461;-87
2022/02/22 05:14:26;;;;;;;5.87;2.87;;;5.40;99.90;;;;;;4941159;29;20446;-88
2022/02/22 05:16:52;;;;;;;6.63;3.57;;;5.40;99.90;;;;;;4932558;29;20463;-86
2022/02/22 05:19:20;;;;;;;7.70;2.60;;;5.30;99.90;;;;;;4948941;29;20457;-87
2022/02/22 05:21:47;;;;;;;8.70;2.87;;;5.30;99.90;;;;;;4943826;29;20504;-86
2022/02/22 05:24:14;;;;;;;7.40;3.93;;;5.40;99.90;;;;;;4933686;28;20995;-87
2022/02/22 05:26:43;;;;;;;8.70;3.30;;;5.30;99.90;;;;;;4933528;29;20481;-87
2022/02/22 05:29:09;;;;;;;6.00;3.63;;;5.40;99.90;;;;;;4940290;29;20465;-88
2022/02/22 05:31:38;;;;;;;3.93;2.30;;;5.40;99.90;;;;;;4933845;29;20459;-90
2022/02/22 05:34:05;;;;;;;5.23;3.23;;;5.30;99.90;;;;;;4945975;29;20447;-90
2022/02/22 05:36:32;;;;;;;8.23;2.80;;;5.20;99.90;;;;;;4956079;29;20479;-87
2022/02/22 05:38:58;;;;;;;4.83;3.13;;;5.30;99.90;;;;;;4942492;29;20465;-88
2022/02/22 05:41:25;;;;;;;7.40;2.40;;;5.30;99.90;;;;;;4936469;29;20540;-88
2022/02/22 05:43:52;;;;;;;7.13;2.90;;;5.30;99.90;;;;;;4932579;29;20458;-87
2022/02/22 05:46:21;;;;;;;3.60;2.80;;;5.30;99.90;;;;;;4924174;29;20884;-88
2022/02/22 05:48:49;;;;;;;5.97;2.63;;;5.30;99.90;;;;;;4945629;29;20460;-87
2022/02/22 05:51:21;;;;;;;6.73;2.73;;;5.40;99.90;;;;;;4935143;29;20459;-88
2022/02/22 05:53:51;;;;;;;6.00;2.60;;;5.40;99.90;;;;;;4936620;29;20452;-78
2022/02/22 05:56:18;;;;;;;5.63;2.70;;;5.40;99.90;;;;;;4930857;29;20473;-77
2022/02/22 05:58:44;;;;;;;8.90;2.30;;;5.50;99.90;;;;;;4928713;29;20456;-78
2022/02/22 06:01:11;;;;;;;8.13;3.07;;;5.40;99.90;;;;;;4930349;29;20449;-78
2022/02/22 06:03:38;;;;;;;6.63;3.20;;;5.40;99.90;;;;;;4932079;29;20450;-78
2022/02/22 06:06:06;;;;;;;4.90;3.30;;;5.40;99.90;;;;;;4930174;29;20477;-77
2022/02/22 06:08:33;;;;;;;5.27;3.17;;;5.40;99.90;;;;;;4942056;29;20430;-77
2022/02/22 06:10:59;;;;;;;7.23;2.73;;;5.40;99.90;;;;;;4935099;29;20455;-78
2022/02/22 06:13:26;;;;;;;11.03;4.37;;;5.40;99.90;;;;;;4931562;29;20827;-78
2022/02/22 06:15:53;;;;;;;8.27;2.50;;;5.40;99.90;;;;;;4931434;29;20482;-78
2022/02/22 06:18:19;;;;;;;9.73;3.33;;;5.50;99.90;;;;;;4927227;29;20461;-86
2022/02/22 06:20:47;;;;;;;6.80;3.57;;;5.60;99.90;;;;;;4933801;29;20446;-86
2022/02/22 06:23:15;;;;;;;4.00;3.03;;;5.50;99.90;;;;;;4935064;29;20450;-86
2022/02/22 06:25:42;;;;;;;8.23;2.97;;;5.40;99.90;;;;;;4937236;29;20477;-86
2022/02/22 06:28:09;;;;;;;8.03;2.67;;;5.40;99.90;;;;;;4931053;29;20475;-86
2022/02/22 06:30:36;;;;;;;8.03;3.17;;;5.40;99.90;;;;;;4927322;29;20476;-86
2022/02/22 06:33:03;;;;;;;13.53;2.90;;;5.30;99.90;;;;;;4927486;29;20444;-86
2022/02/22 06:35:30;;;;;;;8.50;3.67;;;5.30;99.90;;;;;;4943139;28;20453;-86
2022/02/22 06:37:57;;;;;;;6.97;2.60;;;5.30;99.90;;;;;;4944752;28;20460;-86
2022/02/22 06:40:25;;;;;;;8.43;2.87;;;5.40;99.90;;;;;;4928705;29;20456;-87
2022/02/22 06:42:52;;;;;;;6.93;3.73;;;5.40;99.90;;;;;;4944594;29;20464;-85
2022/02/22 06:45:19;;;;;;;5.67;3.30;;;5.40;99.90;;;;;;4929719;29;20483;-86
2022/02/22 06:47:46;;;;;;;6.40;2.70;;;5.40;99.90;;;;;;4925861;29;21009;-86
2022/02/22 06:50:14;;;;;;;6.60;3.07;;;5.50;99.90;;;;;;4928076;29;20456;-86
2022/02/22 06:52:42;;;;;;;8.30;4.07;;;5.50;99.90;;;;;;4935863;29;20462;-86
2022/02/22 06:55:10;;;;;;;7.17;3.53;;;5.60;99.90;;;;;;4930459;29;20482;-86
2022/02/22 06:57:39;;;;;;;6.90;3.13;;;5.70;99.90;;;;;;4924353;29;20458;-86
2022/02/22 07:00:09;;;;;;;7.43;2.97;;;5.80;99.90;;;;;;4926493;29;20448;-86
2022/02/22 07:02:37;;;;;;;15.60;2.87;;;5.80;99.90;;;;;;4939204;29;20428;-86
2022/02/22 07:05:06;;;;;;;5.97;3.10;;;5.80;99.90;;;;;;4934026;29;20495;-87
2022/02/22 07:07:33;;;;;;;8.47;3.37;;;5.80;99.90;;;;;;4926907;29;20492;-87
2022/02/22 07:10:00;;;;;;;11.10;3.80;;;5.80;99.90;;;;;;4930741;29;20455;-87
2022/02/22 07:12:27;;;;;;;8.50;3.53;;;5.90;99.90;;;;;;4926122;29;20450;-87
2022/02/22 07:14:53;;;;;;;12.03;3.70;;;5.90;99.90;;;;;;4927639;29;20477;-87
2022/02/22 07:17:22;;;;;;;7.63;3.73;;;6.00;99.90;;;;;;4925148;29;20446;-86
2022/02/22 07:19:48;;;;;;;12.07;2.80;;;6.00;99.90;;;;;;4924522;29;20477;-87
2022/02/22 07:22:15;;;;;;;11.53;3.70;;;6.10;99.90;;;;;;4925088;29;20485;-84
2022/02/22 07:24:42;;;;;;;11.83;5.30;;;6.20;99.90;;;;;;4926060;29;20477;-85
2022/02/22 07:27:09;;;;;;;6.57;3.33;;;6.30;99.90;;;;;;4926524;29;20478;-85
2022/02/22 07:29:36;;;;;;;7.17;4.20;;;6.40;99.90;;;;;;4926397;29;20454;-85
2022/02/22 07:32:03;;;;;;;6.90;3.93;;;6.50;99.90;;;;;;4928156;29;20476;-85
2022/02/22 07:34:31;;;;;;;7.23;3.40;;;6.60;99.90;;;;;;4975567;23;20490;-89
2022/02/22 07:36:59;;;;;;;6.43;3.17;;;6.80;99.90;;;;;;4967897;28;20456;-89
2022/02/22 07:39:27;;;;;;;5.43;3.53;;;6.90;99.90;;;;;;4962416;29;20459;-91
2022/02/22 07:41:54;;;;;;;11.10;3.03;;;7.00;99.60;;;;;;4973443;28;20490;-89
2022/02/22 07:44:21;;;;;;;7.90;4.00;;;7.10;99.40;;;;;;4973276;28;20460;-90
2022/02/22 07:46:48;;;;;;;11.80;4.40;;;7.10;99.30;;;;;;4963671;28;20497;-88
2022/02/22 07:49:20;;;;;;;9.63;4.30;;;7.10;99.40;;;;;;4964562;28;20461;-89
2022/02/22 07:51:48;;;;;;;10.77;4.10;;;7.10;99.30;;;;;;4952395;29;20445;-89
2022/02/22 07:54:15;;;;;;;8.77;3.80;;;7.10;99.30;;;;;;4951725;28;20461;-89
2022/02/22 07:56:43;;;;;;;9.73;3.80;;;7.30;99.00;;;;;;4969173;28;20430;-89
2022/02/22 07:59:09;;;;;;;9.27;4.00;;;7.30;98.50;;;;;;4966262;28;20471;-88
2022/02/22 08:01:36;;;;;;;6.17;4.13;;;7.30;98.50;;;;;;4959595;28;20457;-88
2022/02/22 08:04:03;;;;;;;7.17;2.73;;;7.50;98.20;;;;;;4963069;28;20494;-88
2022/02/22 08:06:30;;;;;;;7.63;2.77;;;7.50;97.90;;;;;;4968291;28;20438;-88
2022/02/22 08:08:58;;;;;;;8.90;2.83;;;7.50;97.80;;;;;;4956845;28;20443;-88
2022/02/22 08:11:29;;;;;;;5.63;2.60;;;7.70;97.30;;;;;;4948648;28;20516;-89
2022/02/22 08:13:59;;;;;;;7.57;2.90;;;7.80;96.30;;;;;;4955632;28;20455;-86
2022/02/22 08:16:26;;;;;;;13.60;3.20;;;8.10;95.90;;;;;;4950480;28;20491;-86
2022/02/22 08:18:53;;;;;;;13.27;3.73;;;8.20;95.50;;;;;;4958067;28;20444;-88
2022/02/22 08:21:20;;;;;;;14.80;4.07;;;8.40;95.30;;;;;;4964080;28;20453;-87
2022/02/22 08:23:53;;;;;;;5.80;2.50;;;8.50;94.90;;;;;;4953800;28;20528;-87
2022/02/22 08:26:21;;;;;;;10.27;3.20;;;8.60;94.20;;;;;;4961254;28;20427;-88
2022/02/22 08:28:56;;;;;;;13.23;3.23;;;8.80;94.10;;;;;;4968577;28;20532;-90
2022/02/22 08:31:25;;;;;;;5.80;3.40;;;8.90;93.60;;;;;;4960748;28;20441;-90
2022/02/22 08:34:07;;;;;;;6.07;2.70;;;9.20;93.30;;;;;;4959201;28;20472;-93
2022/02/22 08:36:36;;;;;;;7.90;3.23;;;9.60;92.90;;;;;;4964682;28;20451;-91
2022/02/22 08:39:04;;;;;;;7.00;2.77;;;10.40;91.30;;;;;;4966258;28;20438;-90
2022/02/22 08:41:32;;;;;;;7.50;2.63;;;10.50;90.60;;;;;;4971009;28;20454;-91
2022/02/22 08:44:01;;;;;;;10.10;3.47;;;10.50;90.60;;;;;;4962608;28;20721;-91
2022/02/22 08:46:28;;;;;;;8.73;2.50;;;10.50;90.10;;;;;;4962388;28;20468;-80
2022/02/22 08:48:54;;;;;;;6.33;2.23;;;10.40;90.30;;;;;;4954578;28;20498;-83
2022/02/22 08:51:22;;;;;;;7.77;3.27;;;10.40;90.30;;;;;;4942595;29;20530;-80
2022/02/22 08:53:49;;;;;;;7.37;2.70;;;10.30;90.20;;;;;;4936924;29;20466;-82
2022/02/22 08:56:16;;;;;;;8.70;2.90;;;10.20;90.80;;;;;;4939231;29;20470;-80
2022/02/22 08:58:44;;;;;;;6.60;3.30;;;10.20;91.00;;;;;;4941568;29;20450;-80
2022/02/22 09:01:10;;;;;;;5.53;3.00;;;10.00;90.20;;;;;;4952593;29;20810;-80
2022/02/22 09:03:37;;;;;;;8.40;2.93;;;9.80;91.00;;;;;;4943129;29;20480;-80
2022/02/22 09:06:05;;;;;;;7.50;3.43;;;9.80;91.20;;;;;;4937366;29;20459;-81
2022/02/22 09:08:32;;;;;;;6.50;2.37;;;9.60;91.10;;;;;;4959793;28;20468;-82
2022/02/22 09:10:59;;;;;;;6.37;2.67;;;9.50;91.20;;;;;;4958640;28;20453;-82
2022/02/22 09:13:26;;;;;;;8.00;2.57;;;9.50;91.70;;;;;;4961252;28;20440;-78
2022/02/22 09:15:54;;;;;;;9.77;2.63;;;9.60;92.10;;;;;;4971854;28;20425;-78
2022/02/22 09:18:21;;;;;;;9.57;2.37;;;9.70;91.70;;;;;;4966287;28;20425;-79
2022/02/22 09:20:49;;;;;;;9.03;3.03;;;9.70;91.50;;;;;;4964195;28;20437;-79
2022/02/22 09:23:16;;;;;;;5.70;2.47;;;9.50;91.60;;;;;;4962663;28;20448;-80
2022/02/22 09:25:55;;;;;;;4.10;3.20;;;9.50;91.60;;;;;;4956156;28;20435;-91
2022/02/22 09:34:53;;;;;;;6.43;2.40;;;9.40;92.10;;;;;;4952531;28;20501;-89
2022/02/22 09:37:29;;;;;;;11.47;3.47;;;9.40;92.20;;;;;;4959187;28;20426;-90
2022/02/22 09:40:02;;;;;;;8.07;3.00;;;9.40;92.20;;;;;;4946273;28;20443;-90
2022/02/22 09:42:46;;;;;;;10.07;2.30;;;9.30;92.20;;;;;;4960999;28;20517;-92
2022/02/22 09:45:25;;;;;;;8.70;2.83;;;9.30;92.40;;;;;;4958626;29;20461;-91
2022/02/22 09:48:04;;;;;;;10.43;3.20;;;9.40;92.50;;;;;;4951537;29;20508;-90
2022/02/22 09:50:36;;;;;;;6.47;3.23;;;9.40;92.50;;;;;;4945796;29;20489;-89
2022/02/22 09:53:12;;;;;;;6.37;2.63;;;9.60;92.30;;;;;;4948406;29;20449;-90
2022/02/22 09:55:48;;;;;;;7.63;3.00;;;9.80;92.10;;;;;;4954107;29;20445;-91
2022/02/22 09:58:17;;;;;;;6.97;2.83;;;10.00;91.40;;;;;;4938071;29;20493;-84
2022/02/22 10:00:57;;;;;;;6.47;2.80;;;10.00;91.00;;;;;;4951053;29;20505;-85
2022/02/22 10:03:25;;;;;;;8.40;2.57;;;9.90;91.30;;;;;;4945554;29;20802;-85
2022/02/22 10:05:53;;;;;;;5.37;2.63;;;9.70;91.40;;;;;;4954704;29;20460;-85
2022/02/22 10:08:26;;;;;;;8.50;1.90;;;9.80;91.80;;;;;;4952978;29;20481;-85
2022/02/22 10:11:01;;;;;;;8.40;2.60;;;9.70;91.70;;;;;;4950939;29;20469;-85
2022/02/22 10:13:29;;;;;;;7.53;2.07;;;9.80;91.70;;;;;;4956081;29;20446;-86
2022/02/22 10:15:58;;;;;;;6.60;2.80;;;9.80;91.50;;;;;;4953263;29;20527;-86
2022/02/22 10:18:26;;;;;;;4.57;2.07;;;9.80;91.40;;;;;;4941732;29;20456;-85
2022/02/22 10:20:53;;;;;;;5.97;2.47;;;9.70;91.50;;;;;;4946752;29;20459;-84
2022/02/22 10:23:30;;;;;;;7.90;2.70;;;9.80;91.90;;;;;;4954848;29;20453;-85
2022/02/22 10:25:59;;;;;;;6.80;3.10;;;10.00;91.00;;;;;;4951013;29;20455;-86
2022/02/22 10:28:26;;;;;;;8.23;2.27;;;10.20;91.00;;;;;;4942756;29;20489;-85
2022/02/22 10:30:54;;;;;;;10.17;3.43;;;10.40;91.00;;;;;;4941542;29;20556;-85
2022/02/22 10:33:23;;;;;;;5.27;1.83;;;10.40;89.90;;;;;;4954428;28;20441;-86
2022/02/22 10:35:53;;;;;;;9.77;3.70;;;10.40;89.50;;;;;;4967298;28;20435;-84
2022/02/22 10:38:22;;;;;;;8.50;2.87;;;10.30;90.10;;;;;;4956815;28;20474;-85
2022/02/22 10:40:58;;;;;;;6.07;3.03;;;10.40;90.40;;;;;;4958484;29;20460;-85
2022/02/22 10:43:28;;;;;;;10.33;2.93;;;10.50;90.20;;;;;;4954118;29;20452;-85
2022/02/22 10:45:57;;;;;;;4.77;2.60;;;10.40;89.50;;;;;;4947174;29;20809;-86
2022/02/22 10:48:33;;;;;;;6.43;2.77;;;10.40;90.00;;;;;;4950436;29;20481;-84
2022/02/22 10:51:03;;;;;;;9.70;3.17;;;10.20;90.20;;;;;;4957298;29;20442;-87
2022/02/22 10:53:33;;;;;;;6.53;3.03;;;10.50;90.40;;;;;;4955913;28;20458;-85
2022/02/22 10:56:01;;;;;;;6.60;3.10;;;10.40;90.40;;;;;;4942606;29;20448;-86
2022/02/22 10:58:28;;;;;;;10.97;4.03;;;10.60;90.30;;;;;;4946679;29;20526;-85
2022/02/22 11:00:55;;;;;;;7.20;3.40;;;10.80;90.00;;;;;;4944853;29;20472;-85
2022/02/22 11:03:22;;;;;;;17.00;3.23;;;10.90;88.90;;;;;;4949577;29;20452;-85
2022/02/22 11:05:50;;;;;;;7.73;3.77;;;11.00;90.10;;;;;;4953049;29;20464;-85
2022/02/22 11:08:25;;;;;;;9.10;3.00;;;11.30;88.90;;;;;;4949934;29;20543;-85
2022/02/22 11:10:56;;;;;;;6.40;2.70;;;11.50;88.80;;;;;;4948627;29;20971;-85
2022/02/22 11:13:30;;;;;;;8.50;3.13;;;11.70;87.30;;;;;;4940165;29;20807;-85
2022/02/22 11:16:09;;;;;;;8.60;3.70;;;11.30;86.80;;;;;;4953330;29;20431;-86
2022/02/22 11:18:44;;;;;;;14.03;5.37;;;10.90;87.80;;;;;;5039334;23;20890;-85
2022/02/22 11:21:11;;;;;;;8.00;4.80;;;10.80;88.70;;;;;;4964957;28;20452;-87
2022/02/22 11:23:39;;;;;;;8.40;4.80;;;10.70;88.80;;;;;;4949833;29;20465;-87
2022/02/22 11:26:09;;;;;;;10.37;3.70;;;10.80;89.50;;;;;;4935190;29;20456;-85
2022/02/22 11:28:38;;;;;;;7.60;2.80;;;10.90;89.00;;;;;;4928041;29;20488;-86
2022/02/22 11:31:07;;;;;;;7.13;3.40;;;11.00;88.80;;;;;;4929434;29;20833;-86
2022/02/22 11:33:43;;;;;;;8.93;3.70;;;11.00;88.90;;;;;;4929792;29;20447;-85
2022/02/22 11:36:10;;;;;;;12.40;5.73;;;11.10;89.00;;;;;;4927268;29;20911;-85
2022/02/22 11:38:43;;;;;;;14.23;4.00;;;11.20;88.30;;;;;;4926359;29;20799;-86
2022/02/22 11:41:18;;;;;;;5.17;2.60;;;11.20;87.50;;;;;;4932848;29;20446;-85
2022/02/22 11:43:53;;;;;;;8.93;2.83;;;11.00;87.90;;;;;;4930620;29;20473;-86
2022/02/22 11:46:21;;;;;;;7.13;4.33;;;11.30;88.00;;;;;;4932420;29;20956;-86
2022/02/22 11:48:49;;;;;;;6.43;3.40;;;11.60;88.20;;;;;;4937326;28;20477;-87
2022/02/22 11:51:16;;;;;;;8.43;2.90;;;11.70;85.70;;;;;;4941094;29;20510;-87
2022/02/22 11:53:54;;;;;;;14.57;4.87;;;11.50;86.20;;;;;;4931516;29;20466;-87
2022/02/22 11:56:25;;;;;;;8.43;4.17;;;11.50;86.70;;;;;;4932903;29;20483;-85
2022/02/22 11:58:52;;;;;;;6.33;3.00;;;11.40;86.20;;;;;;4948602;29;20454;-86
2022/02/22 12:01:20;;;;;;;6.80;2.50;;;11.40;87.10;;;;;;4943596;29;20459;-85
2022/02/22 12:03:49;;;;;;;7.30;4.00;;;11.30;87.60;;;;;;4939156;29;20545;-87
2022/02/22 12:06:20;;;;;;;13.33;4.73;;;11.20;88.10;;;;;;4943872;29;20830;-85
2022/02/22 12:08:51;;;;;;;10.13;5.17;;;11.20;88.90;;;;;;4946241;29;20482;-88
2022/02/22 12:11:20;;;;;;;12.57;4.93;;;11.10;89.30;;;;;;4936181;29;20455;-86
2022/02/22 12:13:49;;;;;;;10.33;4.30;;;11.20;88.70;;;;;;4939920;29;20462;-86
2022/02/22 12:16:18;;;;;;;7.10;3.70;;;11.40;89.20;;;;;;4939202;29;20451;-87
2022/02/22 12:18:46;;;;;;;7.93;2.70;;;11.80;87.50;;;;;;4934295;29;20507;-86
2022/02/22 12:21:14;;;;;;;7.80;2.83;;;11.90;86.30;;;;;;4932753;29;20442;-86
2022/02/22 12:23:43;;;;;;;5.87;2.63;;;12.30;86.40;;;;;;4949096;28;20449;-87
2022/02/22 12:26:12;;;;;;;7.17;3.00;;;12.40;84.40;;;;;;4942178;28;20451;-85
2022/02/22 12:28:49;;;;;;;7.57;2.90;;;12.40;82.80;;;;;;4935338;29;20475;-84
2022/02/22 12:31:28;;;;;;;7.23;3.10;;;12.50;83.20;;;;;;4936980;29;20442;-86
2022/02/22 12:33:59;;;;;;;6.53;2.27;;;12.50;83.00;;;;;;4931772;29;21024;-87
2022/02/22 12:36:27;;;;;;;7.47;2.60;;;12.10;82.00;;;;;;4936262;29;20445;-87
2022/02/22 12:38:57;;;;;;;5.33;2.53;;;11.70;84.80;;;;;;4927590;29;20830;-86
2022/02/22 12:41:26;;;;;;;6.67;3.10;;;11.30;85.40;;;;;;4930103;29;20446;-87
2022/02/22 12:43:53;;;;;;;8.20;2.30;;;11.10;86.90;;;;;;4933833;29;20477;-87
2022/02/22 12:46:22;;;;;;;5.87;2.13;;;11.10;87.50;;;;;;4934655;29;20495;-86
2022/02/22 12:48:49;;;;;;;6.47;2.90;;;10.90;87.00;;;;;;4937845;29;20486;-84
2022/02/22 12:51:23;;;;;;;10.77;2.97;;;11.00;87.50;;;;;;4936015;29;20520;-84
2022/02/22 12:54:01;;;;;;;5.23;2.50;;;11.30;87.10;;;;;;4943431;29;20479;-86
2022/02/22 12:56:31;;;;;;;9.17;3.60;;;11.50;86.70;;;;;;4934984;29;20859;-86
2022/02/22 12:58:58;;;;;;;9.77;2.70;;;11.50;85.50;;;;;;4945287;28;20423;-82
2022/02/22 13:01:27;;;;;;;8.37;3.20;;;11.80;84.60;;;;;;4939205;29;20442;-83
2022/02/22 13:03:54;;;;;;;7.30;3.53;;;11.80;82.90;;;;;;4932570;29;20478;-84